createdAt,value
2019-02-10T00:00:41.145Z,69.90
2019-02-10T00:01:17.704Z,69.98
2019-02-10T00:01:55.357Z,69.85
2019-02-10T00:02:30.059Z,69.99
2019-02-10T00:03:04.518Z,70.00
2019-02-10T00:03:38.953Z,70.02
2019-02-10T00:04:14.159Z,70.02
2019-02-10T00:04:48.515Z,70.04
2019-02-10T00:05:23.202Z,69.88
2019-02-10T00:05:57.545Z,69.96
2019-02-10T00:06:31.913Z,70.58
2019-02-10T00:07:06.550Z,70.58
2019-02-10T00:07:40.920Z,70.38
2019-02-10T00:08:15.356Z,70.22
2019-02-10T00:08:49.822Z,69.97
2019-02-10T00:09:24.418Z,69.94
2019-02-10T00:09:59.027Z,69.93
2019-02-10T00:10:33.730Z,70.10
2019-02-10T00:11:08.358Z,70.10
2019-02-10T00:11:42.698Z,70.10
2019-02-10T00:12:17.038Z,70.03
2019-02-10T00:13:28.074Z,70.04
2019-02-10T00:14:02.716Z,70.12
2019-02-10T00:14:37.104Z,70.28
2019-02-10T00:15:11.551Z,70.28
2019-02-10T00:15:46.166Z,70.21
2019-02-10T00:16:21.686Z,70.03
2019-02-10T00:16:56.325Z,70.09
2019-02-10T00:17:30.697Z,69.94
2019-02-10T00:18:05.097Z,69.83
2019-02-10T00:18:39.822Z,69.81
2019-02-10T00:19:14.418Z,69.68
2019-02-10T00:19:48.781Z,69.60
2019-02-10T00:20:23.738Z,69.74
2019-02-10T00:20:58.194Z,69.96
2019-02-10T00:21:32.687Z,69.68
2019-02-10T00:22:07.061Z,69.49
2019-02-10T00:22:41.413Z,69.47
2019-02-10T00:23:16.302Z,69.65
2019-02-10T00:23:50.691Z,69.56
2019-02-10T00:24:25.088Z,69.56
2019-02-10T00:24:59.499Z,69.47
2019-02-10T00:25:33.866Z,69.28
2019-02-10T00:26:08.242Z,69.39
2019-02-10T00:26:42.604Z,69.24
2019-02-10T00:27:16.952Z,69.33
2019-02-10T00:27:51.297Z,69.30
2019-02-10T00:28:25.635Z,69.29
2019-02-10T00:29:00.341Z,69.36
2019-02-10T00:29:34.991Z,69.19
2019-02-10T00:30:09.728Z,69.21
2019-02-10T00:30:44.076Z,68.94
2019-02-10T00:31:18.440Z,68.87
2019-02-10T00:31:53.043Z,69.08
2019-02-10T00:32:27.682Z,69.07
2019-02-10T00:33:02.050Z,68.97
2019-02-10T00:33:36.417Z,69.01
2019-02-10T00:34:10.819Z,69.01
2019-02-10T00:34:45.430Z,68.63
2019-02-10T00:35:19.874Z,68.61
2019-02-10T00:35:54.223Z,68.49
2019-02-10T00:36:33.256Z,68.70
2019-02-10T00:37:05.080Z,68.22
2019-02-10T00:37:39.554Z,68.22
2019-02-10T00:38:13.998Z,68.44
2019-02-10T00:38:48.934Z,68.49
2019-02-10T00:39:23.629Z,68.29
2019-02-10T00:39:57.972Z,68.51
2019-02-10T00:40:32.605Z,68.46
2019-02-10T00:41:07.011Z,68.72
2019-02-10T00:41:41.400Z,68.50
2019-02-10T00:42:15.859Z,68.50
2019-02-10T00:42:50.214Z,68.25
2019-02-10T00:43:24.850Z,68.21
2019-02-10T00:43:59.215Z,68.05
2019-02-10T00:44:33.871Z,68.08
2019-02-10T00:45:09.150Z,67.98
2019-02-10T00:45:43.495Z,67.67
2019-02-10T00:46:17.858Z,67.67
2019-02-10T00:46:52.527Z,67.94
2019-02-10T00:47:27.125Z,67.64
2019-02-10T00:48:01.503Z,67.64
2019-02-10T00:48:35.909Z,67.23
2019-02-10T00:49:10.633Z,67.20
2019-02-10T00:49:46.628Z,67.31
2019-02-10T00:50:21.309Z,67.08
2019-02-10T00:50:55.771Z,67.08
2019-02-10T00:51:30.467Z,67.18
2019-02-10T00:52:04.867Z,66.92
2019-02-10T00:52:39.246Z,66.86
2019-02-10T00:53:13.841Z,66.64
2019-02-10T00:53:48.495Z,66.58
2019-02-10T00:54:23.167Z,66.55
2019-02-10T00:54:57.536Z,66.15
2019-02-10T00:55:31.985Z,66.18
2019-02-10T00:56:06.647Z,66.20
2019-02-10T00:56:41.101Z,66.20
2019-02-10T00:57:15.448Z,65.60
2019-02-10T00:57:49.796Z,65.75
2019-02-10T00:58:24.241Z,65.71
2019-02-10T00:58:58.640Z,65.86
2019-02-10T00:59:33.032Z,65.23
2019-02-10T01:00:07.546Z,65.23
2019-02-10T01:00:41.949Z,65.12
2019-02-10T01:01:16.599Z,65.25
2019-02-10T01:01:51.222Z,64.97
2019-02-10T01:02:25.573Z,64.76
2019-02-10T01:03:00.029Z,64.64
2019-02-10T01:03:34.479Z,64.64
2019-02-10T01:04:09.243Z,64.39
2019-02-10T01:04:43.638Z,64.29
2019-02-10T01:05:18.119Z,64.25
2019-02-10T01:05:52.627Z,64.25
2019-02-10T01:06:27.008Z,63.98
2019-02-10T01:07:01.952Z,63.98
2019-02-10T01:07:36.465Z,64.09
2019-02-10T01:08:11.137Z,64.23
2019-02-10T01:08:45.810Z,64.23
2019-02-10T01:09:20.518Z,63.70
2019-02-10T01:09:54.977Z,63.95
2019-02-10T01:10:29.819Z,63.95
2019-02-10T01:11:04.254Z,63.40
2019-02-10T01:11:39.823Z,63.49
2019-02-10T01:12:14.371Z,63.29
2019-02-10T01:12:48.711Z,63.27
2019-02-10T01:13:23.069Z,63.14
2019-02-10T01:13:57.556Z,62.84
2019-02-10T01:14:32.371Z,62.84
2019-02-10T01:15:06.840Z,62.96
2019-02-10T01:15:41.490Z,62.71
2019-02-10T01:16:16.447Z,62.60
2019-02-10T01:16:51.398Z,62.38
2019-02-10T01:17:25.735Z,62.71
2019-02-10T01:18:00.416Z,62.62
2019-02-10T01:18:34.854Z,62.42
2019-02-10T01:19:12.251Z,62.51
2019-02-10T01:19:46.872Z,62.51
2019-02-10T01:20:21.541Z,62.06
2019-02-10T01:20:55.897Z,62.20
2019-02-10T01:21:30.473Z,62.12
2019-02-10T01:22:05.156Z,62.04
2019-02-10T01:22:39.796Z,62.21
2019-02-10T01:23:14.431Z,61.42
2019-02-10T01:23:48.790Z,61.54
2019-02-10T01:24:23.194Z,61.54
2019-02-10T01:24:57.831Z,61.17
2019-02-10T01:25:32.319Z,61.17
2019-02-10T01:26:06.710Z,61.19
2019-02-10T01:26:41.088Z,61.19
2019-02-10T01:27:15.765Z,61.42
2019-02-10T01:27:50.110Z,61.42
2019-02-10T01:28:24.457Z,61.47
2019-02-10T01:28:59.007Z,61.28
2019-02-10T01:29:33.739Z,61.25
2019-02-10T01:30:10.352Z,61.11
2019-02-10T01:30:45.195Z,60.64
2019-02-10T01:31:19.835Z,60.76
2019-02-10T01:31:54.209Z,60.76
2019-02-10T01:32:28.963Z,60.75
2019-02-10T01:33:03.417Z,60.75
2019-02-10T01:33:37.980Z,60.63
2019-02-10T01:34:12.743Z,60.17
2019-02-10T01:34:47.342Z,60.17
2019-02-10T01:35:21.693Z,60.02
2019-02-10T01:35:56.055Z,60.04
2019-02-10T01:36:31.050Z,60.04
2019-02-10T01:37:05.460Z,59.62
2019-02-10T01:37:39.843Z,59.62
2019-02-10T01:38:14.189Z,59.53
2019-02-10T01:38:48.631Z,58.96
2019-02-10T01:39:23.122Z,58.98
2019-02-10T01:39:57.746Z,58.98
2019-02-10T01:40:32.103Z,59.28
2019-02-10T01:41:06.530Z,59.22
2019-02-10T01:41:41.398Z,59.31
2019-02-10T01:42:15.751Z,59.18
2019-02-10T01:42:50.094Z,59.18
2019-02-10T01:43:24.468Z,58.84
2019-02-10T01:43:58.815Z,58.59
2019-02-10T01:44:33.674Z,58.15
2019-02-10T01:45:09.838Z,58.15
2019-02-10T01:45:44.227Z,58.71
2019-02-10T01:46:18.849Z,58.66
2019-02-10T01:46:53.202Z,58.53
2019-02-10T01:47:27.583Z,58.53
2019-02-10T01:48:02.423Z,58.26
2019-02-10T01:48:37.529Z,58.26
2019-02-10T01:49:12.398Z,58.01
2019-02-10T01:49:46.768Z,58.26
2019-02-10T01:50:21.132Z,58.22
2019-02-10T01:50:55.472Z,57.79
2019-02-10T01:51:30.088Z,58.05
2019-02-10T01:52:04.472Z,57.76
2019-02-10T01:52:39.197Z,57.03
2019-02-10T01:53:14.199Z,57.40
2019-02-10T01:53:48.598Z,56.78
2019-02-10T01:54:22.935Z,57.01
2019-02-10T01:54:58.227Z,57.01
2019-02-10T01:55:33.060Z,57.31
2019-02-10T01:56:08.074Z,57.50
2019-02-10T01:56:42.447Z,57.45
2019-02-10T01:57:16.812Z,57.26
2019-02-10T01:57:51.144Z,57.26
2019-02-10T01:58:25.549Z,56.50
2019-02-10T01:59:00.258Z,56.29
2019-02-10T01:59:34.685Z,56.29
2019-02-10T02:00:10.990Z,56.89
2019-02-10T02:00:45.329Z,56.89
2019-02-10T02:01:19.869Z,56.83
2019-02-10T02:01:54.222Z,56.88
2019-02-10T02:02:28.575Z,56.59
2019-02-10T02:03:02.924Z,56.53
2019-02-10T02:03:37.346Z,56.26
2019-02-10T02:04:11.724Z,56.26
2019-02-10T02:04:46.104Z,55.80
2019-02-10T02:05:20.547Z,55.33
2019-02-10T02:05:54.897Z,55.50
2019-02-10T02:06:29.237Z,55.22
2019-02-10T02:07:03.912Z,55.22
2019-02-10T02:07:38.321Z,55.48
2019-02-10T02:08:12.671Z,55.18
2019-02-10T02:08:47.480Z,55.18
2019-02-10T02:09:21.824Z,55.24
2019-02-10T02:09:56.388Z,55.24
2019-02-10T02:10:30.747Z,55.48
2019-02-10T02:11:05.119Z,55.59
2019-02-10T02:11:39.486Z,55.36
2019-02-10T02:12:14.097Z,55.08
2019-02-10T02:12:48.680Z,55.08
2019-02-10T02:13:23.027Z,55.10
2019-02-10T02:13:57.457Z,55.31
2019-02-10T02:14:31.825Z,55.20
2019-02-10T02:15:07.802Z,55.46
2019-02-10T02:15:42.238Z,55.55
2019-02-10T02:16:16.910Z,56.11
2019-02-10T02:16:51.861Z,56.11
2019-02-10T02:17:26.454Z,55.93
2019-02-10T02:18:01.081Z,55.93
2019-02-10T02:18:36.030Z,56.01
2019-02-10T02:19:11.089Z,56.17
2019-02-10T02:19:45.563Z,56.34
2019-02-10T02:20:20.251Z,56.34
2019-02-10T02:20:54.608Z,56.21
2019-02-10T02:21:28.957Z,56.29
2019-02-10T02:22:03.593Z,56.34
2019-02-10T02:22:38.228Z,56.49
2019-02-10T02:23:12.590Z,56.58
2019-02-10T02:23:47.209Z,56.58
2019-02-10T02:24:21.547Z,56.48
2019-02-10T02:24:55.919Z,56.40
2019-02-10T02:25:30.566Z,56.93
2019-02-10T02:26:04.959Z,56.44
2019-02-10T02:26:39.647Z,56.81
2019-02-10T02:27:14.256Z,56.81
2019-02-10T02:27:48.943Z,57.05
2019-02-10T02:28:23.417Z,57.19
2019-02-10T02:28:57.829Z,56.84
2019-02-10T02:29:32.754Z,56.84
2019-02-10T02:30:09.339Z,57.49
2019-02-10T02:30:43.784Z,57.80
2019-02-10T02:31:18.720Z,57.80
2019-02-10T02:31:53.094Z,58.22
2019-02-10T02:32:27.439Z,58.22
2019-02-10T02:33:02.052Z,58.53
2019-02-10T02:33:36.439Z,58.43
2019-02-10T02:34:10.886Z,58.43
2019-02-10T02:34:45.352Z,58.81
2019-02-10T02:35:20.361Z,59.45
2019-02-10T02:35:55.005Z,59.31
2019-02-10T02:36:29.391Z,59.31
2019-02-10T02:37:08.036Z,60.05
2019-02-10T02:37:39.844Z,60.05
2019-02-10T02:38:14.538Z,60.10
2019-02-10T02:38:48.879Z,60.71
2019-02-10T02:39:23.819Z,60.71
2019-02-10T02:39:58.439Z,60.25
2019-02-10T02:40:32.799Z,60.53
2019-02-10T02:41:07.173Z,60.62
2019-02-10T02:41:41.581Z,60.94
2019-02-10T02:42:16.314Z,61.57
2019-02-10T02:42:51.187Z,61.09
2019-02-10T02:43:25.878Z,61.09
2019-02-10T02:44:00.240Z,61.80
2019-02-10T02:44:34.870Z,61.75
2019-02-10T02:45:10.968Z,61.98
2019-02-10T02:45:45.614Z,62.30
2019-02-10T02:46:19.981Z,61.94
2019-02-10T02:46:54.334Z,61.94
2019-02-10T02:47:29.010Z,62.06
2019-02-10T02:48:03.620Z,62.06
2019-02-10T02:48:38.313Z,61.82
2019-02-10T02:49:12.791Z,61.95
2019-02-10T02:49:48.007Z,61.95
2019-02-10T02:50:22.628Z,61.94
2019-02-10T02:50:56.972Z,62.45
2019-02-10T02:51:31.591Z,61.95
2019-02-10T02:52:06.066Z,61.95
2019-02-10T02:52:40.633Z,61.92
2019-02-10T02:53:15.344Z,61.91
2019-02-10T02:53:49.702Z,61.91
2019-02-10T02:54:24.043Z,62.19
2019-02-10T02:54:58.511Z,62.19
2019-02-10T02:55:32.856Z,61.81
2019-02-10T02:56:07.344Z,61.81
2019-02-10T02:56:41.837Z,62.89
2019-02-10T02:57:16.462Z,62.16
2019-02-10T02:57:50.832Z,62.16
2019-02-10T02:58:25.452Z,62.72
2019-02-10T02:58:59.801Z,62.79
2019-02-10T02:59:34.439Z,62.79
2019-02-10T03:00:09.402Z,62.46
2019-02-10T03:00:43.748Z,62.25
2019-02-10T03:01:18.113Z,62.14
2019-02-10T03:01:52.771Z,62.14
2019-02-10T03:02:27.144Z,62.40
2019-02-10T03:03:01.504Z,62.79
2019-02-10T03:03:35.881Z,62.79
2019-02-10T03:04:10.254Z,62.63
2019-02-10T03:04:44.661Z,62.66
2019-02-10T03:05:19.024Z,62.66
2019-02-10T03:05:53.383Z,62.64
2019-02-10T03:06:45.500Z,62.25
2019-02-10T03:07:19.849Z,62.25
2019-02-10T03:07:54.201Z,61.67
2019-02-10T03:08:28.559Z,61.89
2019-02-10T03:09:03.490Z,62.00
2019-02-10T03:09:38.170Z,61.89
2019-02-10T03:10:12.604Z,61.96
2019-02-10T03:10:46.957Z,61.96
2019-02-10T03:11:21.294Z,61.67
2019-02-10T03:11:55.990Z,61.13
2019-02-10T03:12:30.586Z,61.13
2019-02-10T03:13:05.055Z,61.33
2019-02-10T03:13:39.906Z,61.33
2019-02-10T03:14:14.272Z,61.25
2019-02-10T03:14:48.617Z,61.25
2019-02-10T03:15:23.295Z,61.22
2019-02-10T03:15:57.654Z,61.08
2019-02-10T03:16:31.997Z,61.08
2019-02-10T03:17:06.451Z,61.16
2019-02-10T03:17:41.167Z,61.30
2019-02-10T03:18:16.095Z,61.01
2019-02-10T03:18:53.142Z,61.08
2019-02-10T03:19:26.752Z,61.08
2019-02-10T03:20:01.096Z,60.72
2019-02-10T03:20:35.494Z,60.90
2019-02-10T03:21:09.888Z,61.02
2019-02-10T03:21:44.310Z,61.02
2019-02-10T03:22:18.651Z,60.92
2019-02-10T03:22:53.277Z,61.03
2019-02-10T03:23:27.627Z,60.55
2019-02-10T03:24:02.576Z,60.41
2019-02-10T03:24:37.221Z,60.31
2019-02-10T03:25:11.655Z,60.21
2019-02-10T03:25:46.064Z,60.59
2019-02-10T03:26:20.408Z,60.59
2019-02-10T03:26:55.025Z,60.33
2019-02-10T03:27:29.370Z,60.33
2019-02-10T03:28:04.025Z,59.96
2019-02-10T03:28:38.430Z,60.21
2019-02-10T03:29:12.798Z,60.26
2019-02-10T03:29:49.728Z,60.01
2019-02-10T03:30:24.078Z,60.06
2019-02-10T03:30:58.437Z,60.06
2019-02-10T03:31:32.793Z,60.65
2019-02-10T03:32:07.236Z,60.53
2019-02-10T03:32:41.915Z,60.53
2019-02-10T03:33:16.652Z,60.22
2019-02-10T03:33:50.994Z,60.22
2019-02-10T03:34:25.341Z,60.06
2019-02-10T03:34:59.939Z,60.17
2019-02-10T03:35:34.931Z,60.29
2019-02-10T03:36:09.911Z,60.29
2019-02-10T03:36:44.923Z,60.43
2019-02-10T03:37:27.001Z,60.43
2019-02-10T03:37:55.900Z,60.26
2019-02-10T03:38:30.500Z,60.28
2019-02-10T03:39:05.802Z,60.13
2019-02-10T03:39:40.552Z,60.05
2019-02-10T03:40:15.049Z,60.11
2019-02-10T03:40:49.645Z,60.02
2019-02-10T03:41:24.269Z,59.73
2019-02-10T03:41:58.980Z,59.73
2019-02-10T03:42:33.320Z,59.68
2019-02-10T03:43:07.738Z,59.68
2019-02-10T03:43:42.142Z,59.85
2019-02-10T03:44:16.521Z,59.62
2019-02-10T03:44:50.873Z,59.62
2019-02-10T03:45:25.258Z,60.46
2019-02-10T03:46:00.220Z,60.47
2019-02-10T03:46:35.138Z,60.04
2019-02-10T03:47:09.532Z,60.04
2019-02-10T03:47:44.516Z,60.34
2019-02-10T03:48:19.151Z,60.39
2019-02-10T03:48:53.870Z,60.39
2019-02-10T03:49:28.226Z,60.47
2019-02-10T03:50:02.583Z,60.75
2019-02-10T03:50:36.977Z,60.86
2019-02-10T03:51:11.679Z,60.88
2019-02-10T03:51:46.042Z,60.88
2019-02-10T03:52:20.382Z,60.61
2019-02-10T03:52:54.737Z,60.67
2019-02-10T03:53:29.628Z,60.22
2019-02-10T03:54:03.984Z,60.08
2019-02-10T03:54:38.399Z,60.09
2019-02-10T03:55:12.752Z,60.09
2019-02-10T03:55:47.137Z,60.70
2019-02-10T03:56:21.501Z,60.45
2019-02-10T03:56:56.130Z,60.35
2019-02-10T03:57:30.476Z,60.57
2019-02-10T03:58:05.745Z,60.70
2019-02-10T03:58:40.383Z,60.70
2019-02-10T03:59:15.069Z,60.43
2019-02-10T03:59:49.409Z,60.21
2019-02-10T04:00:23.760Z,60.21
2019-02-10T04:00:58.129Z,60.62
2019-02-10T04:01:32.466Z,60.76
2019-02-10T04:02:06.830Z,60.75
2019-02-10T04:02:41.797Z,61.06
2019-02-10T04:03:16.729Z,61.37
2019-02-10T04:03:51.107Z,60.83
2019-02-10T04:04:25.740Z,61.04
2019-02-10T04:05:00.268Z,61.04
2019-02-10T04:05:34.878Z,60.71
2019-02-10T04:06:09.362Z,60.97
2019-02-10T04:06:43.978Z,61.08
2019-02-10T04:07:18.316Z,61.08
2019-02-10T04:07:52.666Z,61.08
2019-02-10T04:08:27.000Z,61.03
2019-02-10T04:09:01.821Z,61.03
2019-02-10T04:09:36.452Z,60.78
2019-02-10T04:10:10.975Z,60.99
2019-02-10T04:10:45.336Z,60.87
2019-02-10T04:11:19.669Z,60.87
2019-02-10T04:11:54.285Z,60.97
2019-02-10T04:12:28.911Z,60.83
2019-02-10T04:13:03.270Z,61.10
2019-02-10T04:13:37.622Z,61.10
2019-02-10T04:14:12.273Z,60.84
2019-02-10T04:14:46.639Z,60.72
2019-02-10T04:15:21.086Z,60.71
2019-02-10T04:15:55.721Z,61.05
2019-02-10T04:16:30.628Z,60.96
2019-02-10T04:17:05.078Z,60.94
2019-02-10T04:17:39.865Z,60.92
2019-02-10T04:18:14.301Z,60.92
2019-02-10T04:18:48.899Z,61.17
2019-02-10T04:19:23.265Z,61.07
2019-02-10T04:19:57.909Z,60.99
2019-02-10T04:20:32.255Z,60.83
2019-02-10T04:21:06.993Z,60.86
2019-02-10T04:21:41.345Z,61.13
2019-02-10T04:22:15.788Z,60.51
2019-02-10T04:22:50.403Z,60.69
2019-02-10T04:23:25.018Z,61.11
2019-02-10T04:23:59.414Z,61.11
2019-02-10T04:24:33.867Z,61.31
2019-02-10T04:25:08.271Z,61.44
2019-02-10T04:25:42.621Z,61.67
2019-02-10T04:26:17.002Z,61.67
2019-02-10T04:26:51.355Z,61.31
2019-02-10T04:27:25.963Z,62.35
2019-02-10T04:28:00.428Z,62.35
2019-02-10T04:28:34.813Z,61.69
2019-02-10T04:29:09.228Z,61.69
2019-02-10T04:29:43.566Z,61.71
2019-02-10T04:30:18.178Z,61.71
2019-02-10T04:30:52.637Z,61.47
2019-02-10T04:31:27.294Z,61.72
2019-02-10T04:32:01.667Z,61.66
2019-02-10T04:32:36.461Z,61.76
2019-02-10T04:33:11.116Z,61.09
2019-02-10T04:33:45.765Z,61.48
2019-02-10T04:34:20.366Z,61.48
2019-02-10T04:34:54.704Z,61.41
2019-02-10T04:35:29.303Z,61.64
2019-02-10T04:36:03.677Z,61.53
2019-02-10T04:36:38.092Z,61.53
2019-02-10T04:37:12.476Z,62.70
2019-02-10T04:37:46.891Z,62.70
2019-02-10T04:38:21.240Z,62.25
2019-02-10T04:38:55.926Z,62.32
2019-02-10T04:39:30.269Z,62.32
2019-02-10T04:40:05.044Z,62.38
2019-02-10T04:40:39.622Z,62.02
2019-02-10T04:41:13.993Z,62.13
2019-02-10T04:41:48.430Z,61.48
2019-02-10T04:42:22.772Z,61.56
2019-02-10T04:42:57.125Z,61.56
2019-02-10T04:43:31.677Z,61.85
2019-02-10T04:44:06.069Z,61.85
2019-02-10T04:44:40.548Z,62.02
2019-02-10T04:45:14.895Z,61.59
2019-02-10T04:45:49.323Z,61.59
2019-02-10T04:46:23.959Z,61.84
2019-02-10T04:46:58.564Z,62.32
2019-02-10T04:47:32.941Z,62.04
2019-02-10T04:48:07.322Z,62.06
2019-02-10T04:48:41.717Z,62.06
2019-02-10T04:49:16.344Z,61.94
2019-02-10T04:49:50.677Z,61.94
2019-02-10T04:50:25.011Z,62.14
2019-02-10T04:50:59.342Z,62.11
2019-02-10T04:51:33.722Z,61.96
2019-02-10T04:52:08.110Z,62.31
2019-02-10T04:52:42.514Z,62.46
2019-02-10T04:53:16.853Z,62.58
2019-02-10T04:53:51.464Z,62.71
2019-02-10T04:54:25.808Z,62.71
2019-02-10T04:55:00.535Z,62.44
2019-02-10T04:55:34.921Z,62.62
2019-02-10T04:56:19.630Z,62.85
2019-02-10T04:56:53.967Z,62.38
2019-02-10T04:57:28.635Z,62.38
2019-02-10T04:58:02.986Z,62.84
2019-02-10T04:58:37.646Z,62.84
2019-02-10T04:59:12.253Z,63.33
2019-02-10T04:59:46.602Z,62.89
2019-02-10T05:00:20.939Z,62.89
2019-02-10T05:00:55.282Z,62.76
2019-02-10T05:01:29.924Z,63.25
2019-02-10T05:02:04.637Z,62.99
2019-02-10T05:02:39.006Z,62.95
2019-02-10T05:03:13.635Z,62.95
2019-02-10T05:03:48.003Z,63.11
2019-02-10T05:04:22.334Z,63.06
2019-02-10T05:04:56.667Z,63.14
2019-02-10T05:05:31.024Z,63.37
2019-02-10T05:06:05.684Z,62.57
2019-02-10T05:06:40.316Z,62.88
2019-02-10T05:07:14.971Z,62.77
2019-02-10T05:07:54.426Z,62.93
2019-02-10T05:08:25.384Z,63.23
2019-02-10T05:09:00.009Z,62.88
2019-02-10T05:09:34.604Z,62.88
2019-02-10T05:10:09.732Z,62.63
2019-02-10T05:10:44.693Z,62.63
2019-02-10T05:11:19.291Z,62.95
2019-02-10T05:11:54.058Z,63.27
2019-02-10T05:12:28.394Z,63.27
2019-02-10T05:13:02.766Z,62.71
2019-02-10T05:13:37.147Z,63.28
2019-02-10T05:14:11.561Z,63.28
2019-02-10T05:14:45.866Z,62.89
2019-02-10T05:15:20.794Z,62.93
2019-02-10T05:15:55.385Z,63.35
2019-02-10T05:16:30.000Z,62.89
2019-02-10T05:17:04.406Z,62.89
2019-02-10T05:17:39.044Z,62.97
2019-02-10T05:18:13.666Z,63.02
2019-02-10T05:18:47.998Z,63.02
2019-02-10T05:19:22.686Z,62.61
2019-02-10T05:19:57.404Z,62.61
2019-02-10T05:20:31.747Z,62.55
2019-02-10T05:21:06.732Z,62.78
2019-02-10T05:21:41.151Z,62.94
2019-02-10T05:22:15.493Z,62.59
2019-02-10T05:22:49.829Z,63.50
2019-02-10T05:23:24.184Z,63.04
2019-02-10T05:24:03.474Z,63.00
2019-02-10T05:24:34.838Z,63.04
2019-02-10T05:25:09.498Z,63.04
2019-02-10T05:25:43.862Z,62.95
2019-02-10T05:26:18.211Z,63.10
2019-02-10T05:26:52.570Z,63.35
2019-02-10T05:27:27.229Z,62.97
2019-02-10T05:28:01.644Z,63.46
2019-02-10T05:28:36.045Z,63.46
2019-02-10T05:29:10.757Z,63.25
2019-02-10T05:29:48.591Z,62.43
2019-02-10T05:30:22.944Z,62.43
2019-02-10T05:30:57.327Z,62.54
2019-02-10T05:31:32.037Z,62.63
2019-02-10T05:32:06.476Z,62.87
2019-02-10T05:32:40.845Z,62.30
2019-02-10T05:33:15.189Z,62.30
2019-02-10T05:33:49.536Z,62.76
2019-02-10T05:34:24.139Z,62.11
2019-02-10T05:34:58.530Z,62.45
2019-02-10T05:35:32.971Z,62.45
2019-02-10T05:36:07.687Z,62.50
2019-02-10T05:36:42.092Z,62.62
2019-02-10T05:37:16.470Z,62.41
2019-02-10T05:37:50.918Z,62.62
2019-02-10T05:38:25.264Z,62.62
2019-02-10T05:38:59.631Z,61.83
2019-02-10T05:39:33.995Z,61.83
2019-02-10T05:40:08.529Z,61.88
2019-02-10T05:40:43.154Z,61.88
2019-02-10T05:41:17.802Z,62.18
2019-02-10T05:41:52.451Z,62.09
2019-02-10T05:42:27.073Z,61.74
2019-02-10T05:43:01.443Z,61.65
2019-02-10T05:43:35.827Z,61.65
2019-02-10T05:44:10.283Z,61.32
2019-02-10T05:44:44.698Z,61.28
2019-02-10T05:45:19.070Z,61.28
2019-02-10T05:45:53.434Z,61.28
2019-02-10T05:46:28.060Z,61.35
2019-02-10T05:47:02.469Z,61.45
2019-02-10T05:47:36.909Z,61.45
2019-02-10T05:48:11.436Z,61.42
2019-02-10T05:48:46.059Z,61.42
2019-02-10T05:49:20.427Z,60.93
2019-02-10T05:49:54.810Z,60.79
2019-02-10T05:50:29.159Z,60.74
2019-02-10T05:51:03.523Z,60.48
2019-02-10T05:51:37.927Z,60.48
2019-02-10T05:52:12.359Z,60.29
2019-02-10T05:52:46.997Z,60.14
2019-02-10T05:53:21.619Z,60.26
2019-02-10T05:53:56.319Z,59.97
2019-02-10T05:54:30.632Z,60.13
2019-02-10T05:55:05.187Z,60.45
2019-02-10T05:55:39.606Z,60.45
2019-02-10T05:56:14.093Z,60.11
2019-02-10T05:56:48.434Z,60.11
2019-02-10T05:57:23.404Z,60.54
2019-02-10T05:57:57.815Z,60.15
2019-02-10T05:58:32.402Z,60.15
2019-02-10T05:59:07.049Z,60.00
2019-02-10T05:59:42.084Z,60.12
2019-02-10T06:00:16.547Z,59.50
2019-02-10T06:00:50.899Z,59.50
2019-02-10T06:02:07.516Z,59.61
2019-02-10T06:02:41.898Z,60.01
2019-02-10T06:03:16.286Z,60.01
2019-02-10T06:03:50.653Z,60.04
2019-02-10T06:04:24.990Z,60.04
2019-02-10T06:05:19.811Z,59.66
2019-02-10T06:05:54.448Z,59.31
2019-02-10T06:06:28.813Z,59.39
2019-02-10T06:07:06.240Z,59.50
2019-02-10T06:07:40.895Z,59.15
2019-02-10T06:08:15.270Z,59.15
2019-02-10T06:08:49.593Z,58.74
2019-02-10T06:09:23.968Z,58.74
2019-02-10T06:09:58.431Z,59.12
2019-02-10T06:10:32.799Z,59.02
2019-02-10T06:11:07.451Z,58.80
2019-02-10T06:11:41.866Z,59.11
2019-02-10T06:12:16.616Z,58.86
2019-02-10T06:12:51.471Z,58.86
2019-02-10T06:13:25.897Z,58.70
2019-02-10T06:14:00.248Z,58.75
2019-02-10T06:14:34.783Z,58.75
2019-02-10T06:15:09.589Z,58.67
2019-02-10T06:15:43.959Z,58.55
2019-02-10T06:16:18.315Z,58.41
2019-02-10T06:16:52.684Z,57.99
2019-02-10T06:17:27.056Z,57.99
2019-02-10T06:18:01.833Z,58.27
2019-02-10T06:18:36.197Z,58.23
2019-02-10T06:19:10.871Z,58.33
2019-02-10T06:19:45.248Z,58.16
2019-02-10T06:20:19.627Z,58.16
2019-02-10T06:20:54.314Z,57.99
2019-02-10T06:21:28.741Z,58.65
2019-02-10T06:22:03.139Z,58.19
2019-02-10T06:22:37.543Z,58.19
2019-02-10T06:23:11.929Z,58.05
2019-02-10T06:23:46.623Z,58.08
2019-02-10T06:24:21.235Z,57.54
2019-02-10T06:24:55.695Z,57.54
2019-02-10T06:25:30.094Z,57.77
2019-02-10T06:26:04.731Z,57.88
2019-02-10T06:26:39.108Z,57.98
2019-02-10T06:27:13.498Z,57.94
2019-02-10T06:27:47.879Z,57.40
2019-02-10T06:28:22.218Z,57.40
2019-02-10T06:28:56.576Z,57.61
2019-02-10T06:29:31.170Z,57.61
2019-02-10T06:30:06.568Z,57.36
2019-02-10T06:30:41.283Z,57.36
2019-02-10T06:31:15.634Z,57.33
2019-02-10T06:31:50.009Z,57.29
2019-02-10T06:32:24.386Z,57.33
2019-02-10T06:32:58.750Z,57.38
2019-02-10T06:33:33.421Z,57.29
2019-02-10T06:34:08.068Z,57.28
2019-02-10T06:34:42.714Z,57.28
2019-02-10T06:35:17.667Z,57.50
2019-02-10T06:35:52.004Z,57.50
2019-02-10T06:36:26.446Z,57.37
2019-02-10T06:37:01.092Z,57.37
2019-02-10T06:37:35.887Z,57.20
2019-02-10T06:38:10.232Z,57.24
2019-02-10T06:38:44.882Z,57.23
2019-02-10T06:39:19.228Z,57.26
2019-02-10T06:39:53.857Z,57.26
2019-02-10T06:40:28.200Z,57.34
2019-02-10T06:41:02.819Z,57.18
2019-02-10T06:41:37.206Z,57.48
2019-02-10T06:42:11.938Z,57.48
2019-02-10T06:42:46.287Z,57.07
2019-02-10T06:43:20.623Z,57.52
2019-02-10T06:43:54.953Z,57.52
2019-02-10T06:44:29.567Z,57.18
2019-02-10T06:45:04.031Z,56.70
2019-02-10T06:45:38.675Z,57.19
2019-02-10T06:46:13.070Z,57.47
2019-02-10T06:46:47.968Z,57.54
2019-02-10T06:47:22.604Z,57.48
2019-02-10T06:47:57.850Z,57.48
2019-02-10T06:48:32.173Z,57.58
2019-02-10T06:49:06.870Z,57.97
2019-02-10T06:49:41.247Z,57.97
2019-02-10T06:50:15.695Z,57.54
2019-02-10T06:50:50.055Z,57.37
2019-02-10T06:51:24.665Z,57.21
2019-02-10T06:51:59.302Z,57.21
2019-02-10T06:52:33.986Z,57.60
2019-02-10T06:53:08.640Z,57.44
2019-02-10T06:53:43.031Z,57.49
2019-02-10T06:54:17.402Z,57.50
2019-02-10T06:54:54.587Z,57.57
2019-02-10T06:55:28.929Z,57.72
2019-02-10T06:56:03.343Z,57.52
2019-02-10T06:56:37.698Z,58.24
2019-02-10T06:57:12.135Z,58.24
2019-02-10T06:57:46.497Z,57.81
2019-02-10T06:58:20.843Z,57.99
2019-02-10T06:58:55.528Z,57.99
2019-02-10T06:59:46.266Z,57.96
2019-02-10T07:00:38.489Z,58.15
2019-02-10T07:01:32.177Z,57.49
2019-02-10T07:02:13.095Z,57.49
2019-02-10T07:03:33.745Z,57.71
2019-02-10T07:04:17.609Z,57.37
2019-02-10T07:04:51.985Z,57.90
2019-02-10T07:05:26.335Z,57.90
2019-02-10T07:06:00.943Z,57.63
2019-02-10T07:06:35.639Z,57.95
2019-02-10T07:07:10.046Z,57.95
2019-02-10T07:07:44.731Z,57.69
2019-02-10T07:08:19.373Z,57.61
2019-02-10T07:08:54.040Z,58.06
2019-02-10T07:09:28.389Z,58.06
2019-02-10T07:10:02.794Z,57.66
2019-02-10T07:10:37.263Z,57.70
2019-02-10T07:11:11.795Z,57.70
2019-02-10T07:11:46.184Z,57.65
2019-02-10T07:12:53.496Z,57.96
2019-02-10T07:13:32.102Z,58.04
2019-02-10T07:14:18.094Z,58.04
2019-02-10T07:14:54.187Z,57.76
2019-02-10T07:16:03.702Z,57.22
2019-02-10T07:16:48.001Z,57.22
2019-02-10T07:17:43.980Z,57.59
2019-02-10T07:18:54.159Z,57.67
2019-02-10T07:20:14.788Z,57.35
2019-02-10T07:20:49.138Z,57.60
2019-02-10T07:21:24.193Z,57.60
2019-02-10T07:21:58.543Z,57.19
2019-02-10T07:22:57.055Z,57.17
2019-02-10T07:24:26.000Z,57.14
2019-02-10T07:25:44.574Z,57.14
2019-02-10T07:26:23.700Z,57.15
2019-02-10T07:27:01.295Z,57.30
2019-02-10T07:27:36.014Z,57.08
2019-02-10T07:28:45.733Z,57.50
2019-02-10T07:30:05.646Z,56.98
2019-02-10T07:30:44.249Z,56.98
2019-02-10T07:31:31.907Z,57.01
2019-02-10T07:32:28.278Z,57.04
2019-02-10T07:33:05.442Z,57.08
2019-02-10T07:34:19.284Z,56.73
2019-02-10T07:35:39.424Z,56.59
2019-02-10T07:36:30.827Z,56.59
2019-02-10T07:37:31.785Z,56.44
2019-02-10T07:38:53.041Z,56.71
2019-02-10T07:39:36.052Z,56.71
2019-02-10T07:40:31.842Z,56.87